Home > Products > Valid Products > TAF

000
FTUS43 KICT 310819 AAA
TAFRSL
TAF AMD
KRSL 310819Z 3108/0106 17011KT 6SM -RASN SCT007 BKN015
      TEMPO 3108/3112 1SM -SN BR FEW007 SCT015 BKN035
     FM311200 18013KT P6SM -RA OVC015
     FM010300 33014G19KT P6SM -RASN OVC015=



000
FTUS43 KICT 310534
TAFSLN
TAF
KSLN 310534Z 3106/0106 17008KT P6SM -RASN OVC035
     FM311500 18013KT P6SM -RA OVC015=



000
FTUS43 KICT 310534
TAFICT
TAF
KICT 310534Z 3106/0106 17007KT P6SM OVC060
      TEMPO 3106/3108 -RA
     FM310800 14005KT P6SM -RA SCT015 OVC035
     FM311500 16014KT P6SM -RA OVC015=



000
FTUS43 KICT 310534
TAFHUT
TAF
KHUT 310534Z 3106/0106 17007KT P6SM OVC060
      TEMPO 3106/3107 -RA
     FM310700 14005KT P6SM -RA SCT015 OVC035
     FM311100 17012KT P6SM -RA OVC015=



000
FTUS43 KICT 310534
TAFRSL
TAF
KRSL 310534Z 3106/0106 17011KT P6SM -RASN SCT015 OVC035
     FM311500 18013KT P6SM -RA OVC015
     FM010300 33014G19KT P6SM -RASN OVC015=



000
FTUS43 KICT 310534
TAFCNU
TAF
KCNU 310534Z 3106/0106 VRB04KT P6SM OVC090
     FM311300 13007KT P6SM -RA SCT015 OVC030
     FM312000 18014KT 6SM -RA OVC015
     FM010200 10005KT P6SM -RA OVC015=



000
FTUS43 KICT 310502 AAB
TAFSLN
TAF AMD
KSLN 310502Z 3105/3124 17008KT P6SM -RA OVC035
     FM310800 17010KT 5SM -RA SCT015 OVC025
      TEMPO 3109/3112 -RASN
     FM311500 18013KT P6SM -RA OVC015=



000
FTUS43 KICT 310258 AAA
TAFRSL
TAF AMD
KRSL 310258Z 3103/3124 17011KT P6SM -RASN SCT015 OVC025
     FM311500 18013KT P6SM -RA OVC015=



000
FTUS43 KICT 310237 AAA
TAFSLN
TAF AMD
KSLN 310237Z 3103/3124 17008KT P6SM -RA OVC035
     FM310500 17008KT P6SM OVC035
     FM310800 17010KT 5SM -RA SCT015 OVC025
      TEMPO 3109/3112 -RASN
     FM311500 18013KT P6SM -RA OVC015=



000
FTUS43 KICT 302329
TAFICT
TAF
KICT 302329Z 3100/3124 17010KT P6SM BKN150
     FM310100 17007KT P6SM OVC080
     FM310800 14005KT P6SM -RA SCT015 OVC030
     FM311200 16008KT P6SM -RA OVC015=



000
FTUS43 KICT 302329
TAFHUT
TAF
KHUT 302329Z 3100/3124 17007KT P6SM OVC080
     FM310700 14005KT P6SM -RA SCT015 OVC030
     FM311100 17008KT P6SM -RA OVC015=



000
FTUS43 KICT 302329
TAFRSL
TAF
KRSL 302329Z 3100/3124 17013KT P6SM OVC060
     FM310500 17011KT 5SM -RA SCT015 OVC025
      TEMPO 3109/3112 -RASN
     FM311500 18013KT P6SM -RA OVC015=



000
FTUS43 KICT 302329
TAFCNU
TAF
KCNU 302329Z 3100/3124 15006KT P6SM OVC090
     FM311300 15007KT P6SM -RA SCT015 OVC030
     FM312000 16012KT P6SM -RA OVC015=



000
FTUS43 KICT 302329
TAFSLN
TAF
KSLN 302329Z 3100/3124 17008KT P6SM OVC080
     FM310800 17010KT 5SM -RA SCT015 OVC025
      TEMPO 3109/3112 -RASN
     FM311500 18013KT P6SM -RA OVC015=



000
FTUS43 KICT 301730
TAFICT
TAF
KICT 301730Z 3018/3118 17010KT P6SM BKN150
     FM310100 17007KT P6SM OVC080
     FM310800 14005KT P6SM -RA SCT015 OVC030=



000
FTUS43 KICT 301730
TAFRSL
TAF
KRSL 301730Z 3018/3118 18013G19KT P6SM OVC090
     FM310000 17013KT P6SM OVC060
     FM310500 17011KT 5SM -RASN SCT015 OVC025
     FM311500 18013KT P6SM -RA SCT015 OVC030=



000
FTUS43 KICT 301730
TAFSLN
TAF
KSLN 301730Z 3018/3118 17010KT P6SM BKN150
     FM310000 17008KT P6SM OVC080
     FM310700 17010KT 5SM -RASN SCT015 OVC025
     FM311500 18013KT P6SM -RA SCT015 OVC030=



000
FTUS43 KICT 301730
TAFCNU
TAF
KCNU 301730Z 3018/3118 15006KT P6SM BKN150
     FM310000 15006KT P6SM OVC090
     FM311100 15007KT P6SM -RA SCT015 OVC030=



000
FTUS43 KICT 301730
TAFHUT
TAF
KHUT 301730Z 3018/3118 18010KT P6SM BKN150
     FM310000 17007KT P6SM OVC080
     FM310700 14005KT P6SM -RA SCT015 OVC030=



000
FTUS43 KICT 301130
TAFICT
TAF
KICT 301130Z 3012/3112 VRB03KT P6SM BKN250
     FM301800 17010KT P6SM BKN100
     FM310600 14005KT P6SM -RA BKN030 OVC050=



000
FTUS43 KICT 301130
TAFHUT
TAF
KHUT 301130Z 3012/3112 VRB03KT P6SM BKN250
     FM301700 17011KT P6SM BKN100
     FM310600 14005KT P6SM -RA BKN030 OVC050=



000
FTUS43 KICT 301130
TAFRSL
TAF
KRSL 301130Z 3012/3112 21009KT P6SM BKN250
     FM301600 19014G20KT P6SM BKN150
     FM302100 18013KT P6SM BKN050
     FM310300 17011KT P6SM -RA BKN025
     FM310800 17013KT 3SM -SNRA BKN015=



000
FTUS43 KICT 301130
TAFCNU
TAF
KCNU 301130Z 3012/3112 VRB05KT P6SM BKN250
     FM310000 15006KT P6SM BKN100=



000
FTUS43 KICT 301130
TAFSLN
TAF
KSLN 301130Z 3012/3112 VRB06KT P6SM BKN250
     FM302000 17009KT P6SM BKN100
     FM310400 17009KT P6SM -RA BKN030 OVC050
     FM310900 17008KT 5SM -RASN SCT025 BKN050=



000
FTUS43 KICT 300524
TAFICT
TAF
KICT 300524Z 3006/3106 VRB03KT P6SM BKN250
     FM301600 17007KT P6SM SCT100
     FM310500 14005KT P6SM -RA BKN025=



000
FTUS43 KICT 300524
TAFSLN
TAF
KSLN 300524Z 3006/3106 VRB03KT P6SM BKN250
     FM301500 17012KT P6SM BKN250
     FM302300 17014KT P6SM BKN050
     FM310300 18007KT P6SM -RA BKN025=



000
FTUS43 KICT 300524
TAFCNU
TAF
KCNU 300524Z 3006/3106 35005KT P6SM BKN250
     FM301500 VRB04KT P6SM SCT020 BKN250
     FM310000 15006KT P6SM BKN060=



000
FTUS43 KICT 300524
TAFHUT
TAF
KHUT 300524Z 3006/3106 VRB03KT P6SM BKN250
     FM301600 18008KT P6SM SCT100
     FM310400 14005KT P6SM -RA BKN025=



000
FTUS43 KICT 300524
TAFRSL
TAF
KRSL 300524Z 3006/3106 VRB03KT P6SM BKN250
     FM301600 20014KT P6SM BKN150
     FM302100 19013KT P6SM BKN050
     FM310100 19007KT P6SM -RA BKN025=



000
FTUS43 KICT 292337
TAFSLN
TAF
KSLN 292337Z 3000/3024 35009KT P6SM BKN250
     FM300300 VRB03KT P6SM BKN250
     FM301500 17012KT P6SM BKN250
     FM302300 17014KT P6SM BKN050=



000
FTUS43 KICT 292337
TAFRSL
TAF
KRSL 292337Z 3000/3024 35008KT P6SM BKN250
     FM300300 VRB03KT P6SM BKN250
     FM301600 20014KT P6SM BKN150
     FM302100 19013KT P6SM BKN050=



000
FTUS43 KICT 292337
TAFCNU
TAF
KCNU 292337Z 3000/3024 35014KT P6SM SKC
     FM300000 35005KT P6SM BKN250
     FM301500 VRB04KT P6SM SCT020 BKN250=



000
FTUS43 KICT 292337
TAFICT
TAF
KICT 292337Z 3000/3024 35007KT P6SM BKN250
     FM300600 VRB03KT P6SM BKN250
     FM301600 17007KT P6SM SCT100=



000
FTUS43 KICT 292337
TAFHUT
TAF
KHUT 292337Z 3000/3024 34011KT P6SM BKN250
     FM300600 VRB03KT P6SM BKN250
     FM301600 17008KT P6SM SCT100=



000
FTUS43 KICT 292229 AAA
TAFSLN
TAF AMD
KSLN 292229Z 2922/3018 35013KT P6SM SCT040 BKN250
     FM300000 35005KT P6SM BKN250
     FM300900 09008KT P6SM BKN250=



000
FTUS43 KICT 292229 AAA
TAFRSL
TAF AMD
KRSL 292229Z 2922/3018 35014KT P6SM SCT250
     FM300000 35005KT P6SM BKN250
     FM300600 09008KT P6SM BKN250=



000
FTUS43 KICT 291804 AAA
TAFCNU
TAF AMD
KCNU 291804Z 2918/3018 35015G25KT P6SM OVC035
     FM292300 35015KT P6SM SCT035
     FM300100 35007KT P6SM BKN250
     FM301200 16004KT P6SM BKN250=



000
FTUS43 KICT 291725
TAFRSL
TAF
KRSL 291725Z 2918/3018 35015G25KT P6SM SCT250
     FM300000 35005KT P6SM BKN250
     FM300600 09008KT P6SM BKN250=



000
FTUS43 KICT 291725
TAFSLN
TAF
KSLN 291725Z 2918/3018 35017G26KT P6SM OVC035
     FM292300 35013KT P6SM SCT040 BKN250
     FM300000 35005KT P6SM BKN250
     FM300900 09008KT P6SM BKN250=



000
FTUS43 KICT 291725
TAFCNU
TAF
KCNU 291725Z 2918/3018 35015G25KT P6SM OVC030
     FM292300 35015KT P6SM SCT035
     FM300100 35007KT P6SM BKN250
     FM301200 16004KT P6SM BKN250=



000
FTUS43 KICT 291725
TAFHUT
TAF
KHUT 291725Z 2918/3018 35020G28KT P6SM BKN035
     FM292000 35017KT P6SM SCT040
     FM300000 01007KT P6SM BKN250
     FM301200 09004KT P6SM BKN250=



000
FTUS43 KICT 291725
TAFICT
TAF
KICT 291725Z 2918/3018 35017G25KT P6SM OVC035
     FM292100 35017KT P6SM SCT040
     FM300000 35007KT P6SM BKN250
     FM300600 09008KT P6SM BKN250=



000
FTUS43 KICT 291430 AAA
TAFSLN
TAF AMD
KSLN 291430Z 2914/3012 34017G25KT P6SM OVC035
     FM291700 35017G26KT P6SM SCT040 OVC300
     FM292200 35013KT P6SM SCT040 BKN300
     FM300000 35005KT P6SM BKN300=



000
FTUS43 KICT 291425 AAA
TAFRSL
TAF AMD
KRSL 291425Z 2914/3012 32017KT P6SM BKN300
     FM300000 35005KT P6SM BKN300=



000
FTUS43 KICT 291415 AAA
TAFHUT
TAF AMD
KHUT 291415Z 2914/3012 35022G26KT P6SM SCT030
     FM292000 35017KT P6SM SCT040
     FM300000 35007KT P6SM BKN250=



000
FTUS43 KICT 291410 AAA
TAFICT
TAF AMD
KICT 291410Z 2914/3012 35017G25KT P6SM OVC035
     FM292000 35017KT P6SM SCT040
     FM300000 35007KT P6SM BKN250=



000
FTUS43 KICT 291123
TAFRSL
TAF
KRSL 291123Z 2912/3012 35020G28KT P6SM BKN025
     FM291800 35019G27KT P6SM SCT250
     FM292200 35010KT P6SM SCT250
     FM300100 35005KT P6SM SKC=



000
FTUS43 KICT 291123
TAFHUT
TAF
KHUT 291123Z 2912/3012 35019G28KT P6SM BKN025
     FM292200 35014KT P6SM SCT030
     FM300100 35005KT P6SM SCT250=



000
FTUS43 KICT 291123
TAFSLN
TAF
KSLN 291123Z 2912/3012 35020G28KT P6SM BKN025
     FM292200 35014KT P6SM SCT030
     FM300100 35005KT P6SM SCT250=



000
FTUS43 KICT 291123
TAFCNU
TAF
KCNU 291123Z 2912/3012 35020G30KT P6SM BKN025
     FM292300 35015KT P6SM SCT035
     FM300100 35007KT P6SM SCT250=



000
FTUS43 KICT 291123
TAFICT
TAF
KICT 291123Z 2912/3012 35019G28KT P6SM BKN025
     FM292200 35014KT P6SM SCT030
     FM300100 35005KT P6SM SCT250=



000
FTUS43 KICT 290546 CCA
TAFSLN
TAF COR
KSLN 290546Z 2906/3006 32015G22KT P6SM SCT250
     FM290900 34020G28KT P6SM BKN025
     FM291500 35022G30KT P6SM BKN025
     FM291900 35016G23KT P6SM SCT030
     FM292200 35014KT P6SM SCT035
     FM300000 34006KT P6SM SKC=



000
FTUS43 KICT 290545 CCA
TAFRSL
TAF COR
KRSL 290545Z 2906/3006 32016G25KT P6SM SCT250
     FM290900 35020G28KT P6SM BKN025
     FM291900 35014G20KT P6SM SCT030
     FM292200 35010KT P6SM FEW025
     FM300000 35006KT P6SM SKC=



000
FTUS43 KICT 290534
TAFICT
TAF
KICT 290534Z 2906/3006 33015G22KT P6SM SCT250
     FM291100 35018G24KT P6SM SCT025
     FM291300 35018G24KT P6SM BKN025
     FM291500 35020G28KT P6SM BKN025
     FM292300 35014KT P6SM SCT030
     FM300100 35005KT P6SM SKC=



000
FTUS43 KICT 290534
TAFRSL
TAF
KRSL 290534Z 2906/3006 32016G25KT P6SM SCT250
     FM291000 35020G28KT P6SM BKN025
     FM291900 35014G20KT P6SM SCT030
     FM292200 35010KT P6SM FEW025
     FM300000 35006KT P6SM SKC=



000
FTUS43 KICT 290534
TAFSLN
TAF
KSLN 290534Z 2906/3006 32015G22KT P6SM SCT250
     FM291000 34020G28KT P6SM BKN025
     FM291500 35022G30KT P6SM BKN025
     FM291900 35016G23KT P6SM SCT030
     FM292200 35014KT P6SM SCT035
     FM300000 34006KT P6SM SKC=



000
FTUS43 KICT 290534
TAFCNU
TAF
KCNU 290534Z 2906/3006 30010KT P6SM SCT250
     FM290800 32012KT P6SM SCT250
     FM291200 35014G20KT P6SM BKN035
     FM291500 35018G25KT P6SM BKN035
     FM300000 35007KT P6SM SCT035=



000
FTUS43 KICT 290534
TAFHUT
TAF
KHUT 290534Z 2906/3006 32014KT P6SM SCT250
     FM291200 35016G23KT P6SM BKN025
     FM291400 35023G30KT P6SM BKN025
     FM292000 35015G22KT P6SM SCT030
     FM300000 35007KT P6SM SKC=



000
FTUS43 KICT 290411 AAA
TAFHUT
TAF AMD
KHUT 290411Z 2904/2924 32017G24KT P6SM SCT250
     FM290600 35014KT P6SM SCT250
     FM291200 35016G23KT P6SM BKN035
     FM291400 35023G30KT P6SM BKN035
     FM292000 35015G22KT P6SM SCT035=



000
FTUS43 KICT 282339
TAFRSL
TAF
KRSL 282339Z 2900/2924 31016G24KT P6SM SCT250
     FM290500 32016G25KT P6SM SCT250
     FM291000 35020G28KT P6SM BKN035
     FM291900 35014G20KT P6SM SCT035
     FM292200 35010KT P6SM FEW035=



000
FTUS43 KICT 282339
TAFSLN
TAF
KSLN 282339Z 2900/2924 30010KT P6SM SCT250
     FM290300 32015G24KT P6SM SCT250
     FM291000 34020G28KT P6SM BKN035
     FM291500 35022G30KT P6SM BKN035
     FM291900 35016G23KT P6SM SCT035
     FM292200 35014KT P6SM SCT035=



000
FTUS43 KICT 282339
TAFHUT
TAF
KHUT 282339Z 2900/2924 30010KT P6SM SCT250
     FM290600 35014KT P6SM SCT250
     FM291200 35016G23KT P6SM BKN035
     FM291400 35023G30KT P6SM BKN035
     FM292000 35015G22KT P6SM SCT035=



000
FTUS43 KICT 282339
TAFICT
TAF
KICT 282339Z 2900/2924 27013KT P6SM SCT250
     FM290500 32015KT P6SM SCT250
     FM291100 35012G24KT P6SM SCT250
     FM291300 35014KT P6SM BKN035
     FM291500 35020G28KT P6SM BKN035
     FM292300 35014KT P6SM SCT035=



000
FTUS43 KICT 282339
TAFCNU
TAF
KCNU 282339Z 2900/2924 24010KT P6SM SCT250
     FM290800 32012KT P6SM SCT250
     FM291200 35014G20KT P6SM BKN035
     FM291500 35018G25KT P6SM BKN035=



000
FTUS43 KICT 281723
TAFICT
TAF
KICT 281723Z 2818/2918 22010G20KT P6SM BKN250
     FM282100 27013G23KT P6SM SCT250
     FM290300 32015KT P6SM SCT250
     FM290600 35012G24KT P6SM SCT250
     FM291400 35014KT P6SM SCT035=



000
FTUS43 KICT 281723
TAFHUT
TAF
KHUT 281723Z 2818/2918 26015G25KT P6SM BKN250
     FM282100 27013G23KT P6SM SCT250
     FM290300 32015G24KT P6SM SCT250
     FM290600 35012G24KT P6SM SCT250
     FM291400 35014KT P6SM SCT035=



000
FTUS43 KICT 281723
TAFCNU
TAF
KCNU 281723Z 2818/2918 20018G28KT P6SM SCT250
     FM290000 24010KT P6SM SCT250
     FM290800 32015G25KT P6SM SCT250
     FM291400 35014KT P6SM BKN035=



000
FTUS43 KICT 281723
TAFRSL
TAF
KRSL 281723Z 2818/2918 32014KT P6SM BKN250
     FM290000 31013KT P6SM SCT250
     FM290500 32016G25KT P6SM SCT250
     FM291200 35016G26KT P6SM BKN035=



000
FTUS43 KICT 281723
TAFSLN
TAF
KSLN 281723Z 2818/2918 27010KT P6SM SCT250
     FM290300 32015G24KT P6SM SCT250
     FM291200 34021KT P6SM SKC
     FM291500 34022G29KT P6SM BKN035=



000
FTUS43 KICT 281237 AAA
TAFHUT
TAF AMD
KHUT 281237Z 2813/2912 18007KT P6SM SKC WS020/20050KT
     FM281500 21010KT P6SM SKC
     FM281700 26010KT P6SM SCT250
     FM290300 32015G24KT P6SM SCT250=



000
FTUS43 KICT 281236 AAA
TAFICT
TAF AMD
KICT 281236Z 2813/2912 18008KT P6SM SKC WS020/20050KT
     FM281500 20008KT P6SM SKC
     FM281700 22010KT P6SM SCT250
     FM282100 27013KT P6SM SCT250
     FM290300 32015KT P6SM SCT250=



000
FTUS43 KICT 281120
TAFCNU
TAF
KCNU 281120Z 2812/2912 18008KT P6SM SKC
     FM281500 18014G20KT P6SM SCT250
     FM281800 20020G28KT P6SM SCT250
     FM290000 24010KT P6SM SCT250
     FM290800 32015KT P6SM SCT250=



000
FTUS43 KICT 281120
TAFRSL
TAF
KRSL 281120Z 2812/2912 23010KT P6SM SKC
     FM281600 32014G21KT P6SM SCT250
     FM290000 31013KT P6SM SCT250
     FM290500 32016G25KT P6SM SCT250=



000
FTUS43 KICT 281120
TAFICT
TAF
KICT 281120Z 2812/2912 18008KT P6SM SKC
     FM281700 22010KT P6SM SCT250
     FM282100 27013KT P6SM SCT250
     FM290300 32015KT P6SM SCT250=



000
FTUS43 KICT 281120
TAFSLN
TAF
KSLN 281120Z 2812/2912 19008KT P6SM SKC
     FM281700 27010KT P6SM SCT250
     FM290300 32015G24KT P6SM SCT250=



000
FTUS43 KICT 281120
TAFHUT
TAF
KHUT 281120Z 2812/2912 18007KT P6SM SKC
     FM281700 26010KT P6SM SCT250
     FM290300 32015G24KT P6SM SCT250=



    US Dept of Commerce
    National Oceanic and Atmospheric Administration
    National Weather Service
    1325 East West Highway
    Silver Spring, MD 20910
    Page Author: NWS Internet Services Team
Disclaimer
Information Quality
Credits
Glossary
Privacy Policy
Freedom of Information Act (FOIA)
About Us
Career Opportunities